< Typhoon 198105 1981 Season Typhoon 198107 >
Typhoon 198106 (KELLY)
General InformationTrack Information on Google MapsDetailed Wind InformationList of All Images || Disaster Info.ResourceGoogle EarthGE AnimationAtom FeedGeoJSON
Detalied Best Track (Time Zone = UTC)
Year Month Day Hour Lat. Long. Pressure (hPa) Wind (kt) Class Image Chart
1981 6 27 06 13.0 143.0 1008 0 2 Image Chart
1981 6 27 12 13.5 142.2 1008 0 2 Image Chart
1981 6 27 18 13.5 140.5 1008 0 2 Image Chart
1981 6 28 00 13.5 138.9 1008 0 2 Image Chart
1981 6 28 06 13.5 137.2 1008 0 2 Image Chart
1981 6 28 12 13.5 135.5 1008 0 2 Image Chart
1981 6 28 18 13.5 133.7 1008 0 2 Image Chart
1981 6 29 00 13.5 132.0 1008 0 2 Image Chart
1981 6 29 06 13.6 130.8 1006 0 2 Image Chart
1981 6 29 12 13.7 129.5 1006 0 2 Image Chart
1981 6 29 18 13.8 128.3 1004 0 2 Image Chart
1981 6 30 00 13.8 127.0 1004 0 2 Image Chart
1981 6 30 06 13.8 125.6 1000 0 2 Image Chart
1981 6 30 12 13.8 124.2 998 35 3 Image Chart
1981 6 30 18 13.8 123.0 998 35 3 Image Chart
1981 7 1 00 13.8 121.6 998 35 3 Image Chart
1981 7 1 06 13.8 120.2 994 35 3 Image Chart
1981 7 1 12 13.8 118.9 992 40 3 Image Chart
1981 7 1 18 14.0 117.5 990 45 3 Image Chart
1981 7 2 00 14.1 116.1 985 45 3 Image Chart
1981 7 2 06 14.3 115.6 980 55 4 Image Chart
1981 7 2 12 14.8 114.8 980 60 4 Image Chart
1981 7 2 18 15.8 113.8 975 60 4 Image Chart
1981 7 3 00 16.9 112.7 975 60 4 Image Chart
1981 7 3 06 17.7 111.4 975 60 4 Image Chart
1981 7 3 12 18.1 110.2 975 60 4 Image Chart
1981 7 3 18 18.5 109.0 980 60 4 Image Chart
1981 7 4 00 19.0 108.0 980 50 4 Image Chart
1981 7 4 06 19.2 107.3 980 50 4 Image Chart
1981 7 4 12 19.5 106.5 980 50 4 Image Chart
1981 7 4 18 19.7 105.8 980 50 4 Image Chart
1981 7 5 00 20.0 105.0 996 0 2 Image Chart
1981 7 5 06 20.0 104.0 998 0 2 Image Chart
1981 7 5 12 20.0 103.0 998 0 2 Image Chart
1981 7 5 18 20.0 102.0 1000 0 2 Image Chart
1981 7 6 00 20.0 101.0 1000 0 2 Image Chart
Japan Meteorological Agency Best Track Data | Correction Date : 1992-10-21
< Typhoon 198105 1981 Season Typhoon 198107 >

Help